createdAt,value
2023-02-04T00:01:29.841Z,2.58
2023-02-04T00:04:31.323Z,2.13
2023-02-04T00:07:32.815Z,2.25
2023-02-04T00:10:34.473Z,2.72
2023-02-04T00:13:36.119Z,1.67
2023-02-04T00:16:37.563Z,2.15
2023-02-04T00:19:40.800Z,2.33
2023-02-04T00:22:42.322Z,3.33
2023-02-04T00:25:43.794Z,2.40
2023-02-04T00:28:45.327Z,2.13
2023-02-04T00:31:46.855Z,2.20
2023-02-04T00:34:48.388Z,2.53
2023-02-04T00:37:50.658Z,2.30
2023-02-04T00:40:52.511Z,3.35
2023-02-04T00:43:53.967Z,2.30
2023-02-04T00:46:55.563Z,3.95
2023-02-04T00:49:57.431Z,3.40
2023-02-04T00:53:01.841Z,3.00
2023-02-04T00:56:04.763Z,2.42
2023-02-04T00:59:06.260Z,3.80
2023-02-04T01:02:07.802Z,2.70
2023-02-04T01:05:10.404Z,3.50
2023-02-04T01:08:12.309Z,3.17
2023-02-04T01:11:13.803Z,3.00
2023-02-04T01:14:15.373Z,2.95
2023-02-04T01:17:18.365Z,2.30
2023-02-04T01:20:21.404Z,2.20
2023-02-04T01:23:23.646Z,2.20
2023-02-04T01:26:25.298Z,2.45
2023-02-04T01:29:28.611Z,2.40
2023-02-04T01:32:30.053Z,3.13
2023-02-04T01:35:31.557Z,3.15
2023-02-04T01:38:33.025Z,2.28
2023-02-04T01:41:34.601Z,3.15
2023-02-04T01:44:36.293Z,2.55
2023-02-04T01:47:38.509Z,2.47
2023-02-04T01:50:40.852Z,3.60
2023-02-04T01:53:42.889Z,3.08
2023-02-04T01:56:47.757Z,3.08
2023-02-04T01:59:52.921Z,3.28
2023-02-04T02:02:56.373Z,4.00
2023-02-04T02:05:58.342Z,3.22
2023-02-04T02:09:01.674Z,4.25
2023-02-04T02:12:04.346Z,3.67
2023-02-04T02:15:07.723Z,4.15
2023-02-04T02:18:10.552Z,3.85
2023-02-04T02:21:16.167Z,3.42
2023-02-04T02:24:23.766Z,3.30
2023-02-04T02:27:27.471Z,5.68
2023-02-04T02:30:29.580Z,4.15
2023-02-04T02:33:31.567Z,3.63
2023-02-04T02:36:33.134Z,3.55
2023-02-04T02:39:36.521Z,3.60
2023-02-04T02:42:38.497Z,3.17
2023-02-04T02:45:40.055Z,4.00
2023-02-04T02:48:41.722Z,4.35
2023-02-04T02:51:44.200Z,3.65
2023-02-04T02:54:46.446Z,4.72
2023-02-04T03:00:53.383Z,3.45
2023-02-04T03:03:55.788Z,3.53
2023-02-04T03:06:57.644Z,3.90
2023-02-04T03:09:59.244Z,3.47
2023-02-04T03:13:00.839Z,4.15
2023-02-04T03:16:03.519Z,3.40
2023-02-04T03:19:06.967Z,2.90
2023-02-04T03:22:08.886Z,3.65
2023-02-04T03:25:10.421Z,3.97
2023-02-04T03:28:12.048Z,3.55
2023-02-04T03:31:13.673Z,4.93
2023-02-04T03:34:15.159Z,3.45
2023-02-04T03:37:16.630Z,3.70
2023-02-04T03:40:18.264Z,4.30
2023-02-04T03:43:19.770Z,4.43
2023-02-04T03:46:23.642Z,3.92
2023-02-04T03:49:26.225Z,4.28
2023-02-04T03:52:27.748Z,4.78
2023-02-04T03:55:29.300Z,4.78
2023-02-04T03:58:30.790Z,3.72
2023-02-04T04:01:32.584Z,3.50
2023-02-04T04:04:34.132Z,3.65
2023-02-04T04:07:35.612Z,4.07
2023-02-04T04:10:37.116Z,3.63
2023-02-04T04:13:38.679Z,3.15
2023-02-04T04:16:40.152Z,5.18
2023-02-04T04:19:41.639Z,4.18
2023-02-04T04:22:43.170Z,3.67
2023-02-04T04:25:44.674Z,4.85
2023-02-04T04:28:46.239Z,4.10
2023-02-04T04:31:47.937Z,4.10
2023-02-04T04:34:49.518Z,4.88
2023-02-04T04:37:51.030Z,7.35
2023-02-04T04:40:52.487Z,6.85
2023-02-04T04:43:53.906Z,4.90
2023-02-04T04:46:55.498Z,5.72
2023-02-04T04:49:57.028Z,5.50
2023-02-04T04:52:58.544Z,5.07
2023-02-04T04:55:59.984Z,4.90
2023-02-04T04:59:01.451Z,5.07
2023-02-04T05:02:02.911Z,6.05
2023-02-04T05:05:04.630Z,7.95
2023-02-04T05:08:13.002Z,7.15
2023-02-04T05:11:14.457Z,6.30
2023-02-04T05:14:15.880Z,5.32
2023-02-04T05:17:17.361Z,6.78
2023-02-04T05:20:18.999Z,7.22
2023-02-04T05:23:20.522Z,6.40
2023-02-04T05:26:29.780Z,11.88
2023-02-04T05:29:31.865Z,9.55
2023-02-04T05:32:33.364Z,6.80
2023-02-04T05:35:34.819Z,6.60
2023-02-04T05:38:36.236Z,6.68
2023-02-04T05:41:37.771Z,5.85
2023-02-04T05:44:39.258Z,5.10
2023-02-04T05:47:40.783Z,6.38
2023-02-04T05:50:42.271Z,7.00
2023-02-04T05:53:43.806Z,4.90
2023-02-04T05:56:46.889Z,5.10
2023-02-04T05:59:48.427Z,5.07
2023-02-04T06:02:49.920Z,5.78
2023-02-04T06:05:51.415Z,4.82
2023-02-04T06:08:52.869Z,7.50
2023-02-04T06:11:54.366Z,5.05
2023-02-04T06:14:56.128Z,5.20
2023-02-04T06:17:58.494Z,5.10
2023-02-04T06:21:00.008Z,5.18
2023-02-04T06:24:01.526Z,5.25
2023-02-04T06:27:03.046Z,5.38
2023-02-04T06:30:05.032Z,7.28
2023-02-04T06:33:06.526Z,5.15
2023-02-04T06:36:08.141Z,4.68
2023-02-04T06:39:09.690Z,4.68
2023-02-04T06:42:11.164Z,6.93
2023-02-04T06:45:12.690Z,4.43
2023-02-04T06:48:14.147Z,4.43
2023-02-04T06:51:15.574Z,3.80
2023-02-04T06:54:17.961Z,4.25
2023-02-04T06:57:19.405Z,3.58
2023-02-04T07:00:21.090Z,4.20
2023-02-04T07:03:22.510Z,4.70
2023-02-04T07:06:23.935Z,3.65
2023-02-04T07:09:25.905Z,2.88
2023-02-04T07:12:27.381Z,2.38
2023-02-04T07:15:28.993Z,3.17
2023-02-04T07:18:30.516Z,3.03
2023-02-04T07:21:31.999Z,3.03
2023-02-04T07:24:33.479Z,3.78
2023-02-04T07:27:34.905Z,3.10
2023-02-04T07:30:36.608Z,4.47
2023-02-04T07:33:38.795Z,2.45
2023-02-04T07:36:40.996Z,5.82
2023-02-04T07:39:42.486Z,3.20
2023-02-04T07:42:44.240Z,4.35
2023-02-04T07:45:51.408Z,2.80
2023-02-04T07:48:52.995Z,3.78
2023-02-04T07:51:54.627Z,4.65
2023-02-04T07:54:56.056Z,3.38
2023-02-04T07:57:57.895Z,3.47
2023-02-04T08:00:59.663Z,3.80
2023-02-04T08:04:01.177Z,3.28
2023-02-04T08:07:02.691Z,3.22
2023-02-04T08:10:05.322Z,2.47
2023-02-04T08:13:06.943Z,4.15
2023-02-04T08:16:09.364Z,3.13
2023-02-04T08:19:12.647Z,3.13
2023-02-04T08:22:14.230Z,1.95
2023-02-04T08:25:16.246Z,2.38
2023-02-04T08:28:18.123Z,4.00
2023-02-04T08:31:19.700Z,2.55
2023-02-04T08:34:21.306Z,2.00
2023-02-04T08:37:22.807Z,4.10
2023-02-04T08:40:24.258Z,5.45
2023-02-04T08:43:26.798Z,8.20
2023-02-04T08:46:28.396Z,10.23
2023-02-04T08:49:29.981Z,13.07
2023-02-04T08:52:31.514Z,15.27
2023-02-04T08:55:33.027Z,11.20
2023-02-04T08:58:35.099Z,9.13
2023-02-04T09:01:36.595Z,9.93
2023-02-04T09:04:38.164Z,9.38
2023-02-04T09:07:39.602Z,9.30
2023-02-04T09:10:41.286Z,8.32
2023-02-04T09:13:42.770Z,7.25
2023-02-04T09:16:44.350Z,8.73
2023-02-04T09:19:46.011Z,9.18
2023-02-04T09:22:50.264Z,7.43
2023-02-04T09:25:51.749Z,7.35
2023-02-04T09:28:53.416Z,6.80
2023-02-04T09:31:54.991Z,6.97
2023-02-04T09:34:56.544Z,7.05
2023-02-04T09:37:58.025Z,6.50
2023-02-04T09:41:06.437Z,5.28
2023-02-04T09:44:16.481Z,5.90
2023-02-04T09:47:23.778Z,5.40
2023-02-04T09:50:28.182Z,5.47
2023-02-04T09:53:30.185Z,5.53
2023-02-04T09:56:32.146Z,4.63
2023-02-04T09:59:33.621Z,5.35
2023-02-04T10:02:35.196Z,6.00
2023-02-04T10:05:37.277Z,5.57
2023-02-04T10:08:40.070Z,6.75
2023-02-04T10:11:42.859Z,4.78
2023-02-04T10:14:44.668Z,5.75
2023-02-04T10:17:52.414Z,5.78
2023-02-04T10:21:14.832Z,4.30
2023-02-04T10:24:19.911Z,4.90
2023-02-04T10:27:21.513Z,5.25
2023-02-04T10:30:31.283Z,4.07
2023-02-04T10:33:35.326Z,4.70
2023-02-04T10:36:37.120Z,3.20
2023-02-04T10:39:43.252Z,3.40
2023-02-04T10:42:50.115Z,3.83
2023-02-04T10:46:04.563Z,3.58
2023-02-04T10:52:21.480Z,5.25
2023-02-04T10:55:24.198Z,3.55
2023-02-04T10:58:31.328Z,3.20
2023-02-04T11:01:32.957Z,2.75
2023-02-04T11:04:34.521Z,3.42
2023-02-04T11:07:36.029Z,2.20
2023-02-04T11:10:37.530Z,3.13
2023-02-04T11:13:50.010Z,3.03
2023-02-04T11:16:51.614Z,1.80
2023-02-04T11:19:53.061Z,4.03
2023-02-04T11:22:54.727Z,2.05
2023-02-04T11:26:19.084Z,3.20
2023-02-04T11:29:26.478Z,3.63
2023-02-04T11:32:37.933Z,3.30
2023-02-04T11:35:39.548Z,3.85
2023-02-04T11:38:46.962Z,3.20
2023-02-04T11:41:48.453Z,5.10
2023-02-04T11:44:59.789Z,4.20
2023-02-04T11:48:04.393Z,4.95
2023-02-04T11:51:15.252Z,4.68
2023-02-04T11:54:19.256Z,4.57
2023-02-04T12:00:25.517Z,6.15
2023-02-04T12:03:34.145Z,5.03
2023-02-04T12:06:37.047Z,5.13
2023-02-04T12:09:47.525Z,4.47
2023-02-04T12:12:52.104Z,6.63
2023-02-04T12:16:02.560Z,4.30
2023-02-04T12:19:04.073Z,5.95
2023-02-04T12:22:05.554Z,4.03
2023-02-04T12:25:07.641Z,5.97
2023-02-04T12:28:09.192Z,7.70
2023-02-04T12:31:10.881Z,4.57
2023-02-04T12:34:12.562Z,4.18
2023-02-04T12:37:14.069Z,5.18
2023-02-04T12:40:17.275Z,5.60
2023-02-04T12:43:18.817Z,5.20
2023-02-04T12:46:20.328Z,4.63
2023-02-04T12:49:24.207Z,5.25
2023-02-04T12:52:25.705Z,5.20
2023-02-04T12:55:29.254Z,5.55
2023-02-04T12:58:30.835Z,5.65
2023-02-04T13:01:33.623Z,3.78
2023-02-04T13:04:36.336Z,6.45
2023-02-04T13:07:40.701Z,3.63
2023-02-04T13:10:42.825Z,5.57
2023-02-04T13:13:44.316Z,6.63
2023-02-04T13:16:45.798Z,7.15
2023-02-04T13:19:47.372Z,5.57
2023-02-04T13:22:48.912Z,7.78
2023-02-04T13:25:50.410Z,5.88
2023-02-04T13:28:51.920Z,6.07
2023-02-04T13:31:53.448Z,5.78
2023-02-04T13:34:54.951Z,6.32
2023-02-04T13:37:56.675Z,5.70
2023-02-04T13:40:58.164Z,4.45
2023-02-04T13:43:59.714Z,7.10
2023-02-04T13:47:01.266Z,8.52
2023-02-04T13:50:02.832Z,5.80
2023-02-04T13:53:04.308Z,10.45
2023-02-04T13:56:05.980Z,7.93
2023-02-04T13:59:07.544Z,8.55
2023-02-04T14:02:09.675Z,10.05
2023-02-04T14:05:11.221Z,8.95
2023-02-04T14:08:12.667Z,11.20
2023-02-04T14:11:14.227Z,9.57
2023-02-04T14:14:15.974Z,10.25
2023-02-04T14:17:17.559Z,8.90
2023-02-04T14:20:19.106Z,9.25
2023-02-04T14:23:20.591Z,8.13
2023-02-04T14:26:22.056Z,12.13
2023-02-04T14:29:23.609Z,12.88
2023-02-04T14:32:25.108Z,12.70
2023-02-04T14:35:27.038Z,10.13
2023-02-04T14:38:30.892Z,12.25
2023-02-04T14:41:32.485Z,9.73
2023-02-04T14:44:33.920Z,9.45
2023-02-04T14:47:36.410Z,14.65
2023-02-04T14:50:37.914Z,13.05
2023-02-04T14:53:42.354Z,12.93
2023-02-04T14:56:47.735Z,11.40
2023-02-04T14:59:49.176Z,12.15
2023-02-04T15:02:50.680Z,9.23
2023-02-04T15:05:52.206Z,13.13
2023-02-04T15:08:53.846Z,12.05
2023-02-04T15:11:55.927Z,13.65
2023-02-04T15:14:57.431Z,16.83
2023-02-04T15:17:58.939Z,15.35
2023-02-04T15:21:00.589Z,8.60
2023-02-04T15:24:02.191Z,10.43
2023-02-04T15:27:03.765Z,10.57
2023-02-04T15:30:05.467Z,11.60
2023-02-04T15:33:06.907Z,14.48
2023-02-04T15:36:08.586Z,10.02
2023-02-04T15:39:10.083Z,11.13
2023-02-04T15:42:11.613Z,18.20
2023-02-04T15:45:13.161Z,14.02
2023-02-04T15:48:15.539Z,12.30
2023-02-04T15:51:17.358Z,17.52
2023-02-04T15:54:18.891Z,23.75
2023-02-04T15:57:20.386Z,14.05
2023-02-04T16:00:22.818Z,14.60
2023-02-04T16:03:25.516Z,23.25
2023-02-04T16:06:27.175Z,24.33
2023-02-04T16:09:28.633Z,17.45
2023-02-04T16:12:30.161Z,28.30
2023-02-04T16:15:32.246Z,40.25
2023-02-04T16:18:34.055Z,29.33
2023-02-04T16:21:35.559Z,59.40
2023-02-04T16:24:38.506Z,39.38
2023-02-04T16:27:40.171Z,36.65
2023-02-04T16:30:41.615Z,31.10
2023-02-04T16:33:43.077Z,42.92
2023-02-04T16:36:44.545Z,22.13
2023-02-04T16:39:46.027Z,26.77
2023-02-04T16:42:47.601Z,29.30
2023-02-04T16:45:49.166Z,19.77
2023-02-04T16:48:50.672Z,27.10
2023-02-04T16:51:52.136Z,29.02
2023-02-04T16:54:53.728Z,36.40
2023-02-04T16:57:55.601Z,28.60
2023-02-04T17:00:57.593Z,23.30
2023-02-04T17:03:59.217Z,29.30
2023-02-04T17:07:00.772Z,46.10
2023-02-04T17:10:02.328Z,64.90
2023-02-04T17:13:03.826Z,65.88
2023-02-04T17:16:05.695Z,75.13
2023-02-04T17:19:07.382Z,56.83
2023-02-04T17:22:08.842Z,34.17
2023-02-04T17:25:10.338Z,26.88
2023-02-04T17:28:11.877Z,29.70
2023-02-04T17:31:13.973Z,21.92
2023-02-04T17:34:15.506Z,39.22
2023-02-04T17:37:17.013Z,34.03
2023-02-04T17:40:18.550Z,31.40
2023-02-04T17:43:19.988Z,30.20
2023-02-04T17:46:21.659Z,26.10
2023-02-04T17:49:23.149Z,31.30
2023-02-04T17:52:26.623Z,41.03
2023-02-04T17:55:30.657Z,34.85
2023-02-04T17:58:32.976Z,16.33
2023-02-04T18:01:34.598Z,15.98
2023-02-04T18:04:36.532Z,16.13
2023-02-04T18:07:38.058Z,28.40
2023-02-04T18:10:43.371Z,29.27
2023-02-04T18:13:45.044Z,25.02
2023-02-04T18:16:46.691Z,23.10
2023-02-04T18:19:48.189Z,18.15
2023-02-04T18:22:55.449Z,17.40
2023-02-04T18:26:10.626Z,13.32
2023-02-04T18:29:43.000Z,11.25
2023-02-04T18:32:44.483Z,12.52
2023-02-04T18:35:50.290Z,15.48
2023-02-04T18:38:51.785Z,18.58
2023-02-04T18:41:53.302Z,16.45
2023-02-04T18:44:56.696Z,17.90
2023-02-04T18:48:00.858Z,12.65
2023-02-04T18:54:48.668Z,13.90
2023-02-04T18:57:50.177Z,15.02
2023-02-04T19:01:27.567Z,15.75
2023-02-04T19:04:33.222Z,19.50
2023-02-04T19:07:35.733Z,15.30
2023-02-04T19:10:39.665Z,15.57
2023-02-04T19:13:42.259Z,13.93
2023-02-04T19:16:44.500Z,16.45
2023-02-04T19:20:00.896Z,15.13
2023-02-04T19:23:02.383Z,16.35
2023-02-04T19:26:23.979Z,16.98
2023-02-04T19:29:27.457Z,17.60
2023-02-04T19:32:38.159Z,14.38
2023-02-04T19:35:45.098Z,13.55
2023-02-04T19:38:48.001Z,13.38
2023-02-04T19:41:52.075Z,17.02
2023-02-04T19:44:53.664Z,13.65
2023-02-04T19:47:56.616Z,13.65
2023-02-04T19:50:58.711Z,14.93
2023-02-04T19:54:11.648Z,16.17
2023-02-04T19:57:25.962Z,19.13
2023-02-04T20:00:33.558Z,18.25
2023-02-04T20:03:45.989Z,18.48
2023-02-04T20:06:47.899Z,17.52
2023-02-04T20:09:54.748Z,15.93
2023-02-04T20:13:00.613Z,15.07
2023-02-04T20:16:04.059Z,15.10
2023-02-04T20:19:42.451Z,17.55
2023-02-04T20:22:52.568Z,18.77
2023-02-04T20:25:55.015Z,36.63
2023-02-04T20:28:56.554Z,20.25
2023-02-04T20:31:58.060Z,24.02
2023-02-04T20:35:14.493Z,26.50
2023-02-04T20:38:18.277Z,16.42
2023-02-04T20:41:21.170Z,14.48
2023-02-04T20:44:36.499Z,15.18
2023-02-04T20:47:38.102Z,16.40
2023-02-04T20:50:48.091Z,17.42
2023-02-04T20:53:55.340Z,15.15
2023-02-04T20:57:09.684Z,17.33
2023-02-04T21:00:15.834Z,14.63
2023-02-04T21:03:37.497Z,20.25
2023-02-04T21:06:38.959Z,23.40
2023-02-04T21:09:40.468Z,21.00
2023-02-04T21:12:45.681Z,22.30
2023-02-04T21:15:47.614Z,15.82
2023-02-04T21:18:50.616Z,24.70
2023-02-04T21:21:52.885Z,36.15
2023-02-04T21:24:54.471Z,45.53
2023-02-04T21:27:56.777Z,34.67
2023-02-04T21:30:59.316Z,12.70
2023-02-04T21:34:01.005Z,13.82
2023-02-04T21:37:02.490Z,10.75
2023-02-04T21:40:04.405Z,12.90
2023-02-04T21:43:07.967Z,23.40
2023-02-04T21:46:09.466Z,17.42
2023-02-04T21:49:11.019Z,20.05
2023-02-04T21:52:13.247Z,13.45
2023-02-04T21:55:17.286Z,15.27
2023-02-04T21:58:18.793Z,10.98
2023-02-04T22:01:20.279Z,13.15
2023-02-04T22:04:21.776Z,10.63
2023-02-04T22:07:23.504Z,12.80
2023-02-04T22:10:25.994Z,13.82
2023-02-04T22:13:27.567Z,13.13
2023-02-04T22:16:29.065Z,19.27
2023-02-04T22:19:30.610Z,11.98
2023-02-04T22:22:32.184Z,13.27
2023-02-04T22:25:33.965Z,22.40
2023-02-04T22:28:35.632Z,24.52
2023-02-04T22:31:37.224Z,31.73
2023-02-04T22:34:38.859Z,25.38
2023-02-04T22:37:41.899Z,23.70
2023-02-04T22:40:43.345Z,22.10
2023-02-04T22:43:44.797Z,14.05
2023-02-04T22:46:47.565Z,16.40
2023-02-04T22:49:49.244Z,16.55
2023-02-04T22:52:50.762Z,22.95
2023-02-04T22:55:52.274Z,18.83
2023-02-04T22:58:54.055Z,14.65
2023-02-04T23:01:56.289Z,18.50
2023-02-04T23:04:57.867Z,14.07
2023-02-04T23:07:59.328Z,13.38
2023-02-04T23:11:00.770Z,15.25
2023-02-04T23:14:02.296Z,11.68
2023-02-04T23:17:03.799Z,8.20
2023-02-04T23:20:05.738Z,12.68
2023-02-04T23:23:08.391Z,8.38
2023-02-04T23:26:09.968Z,13.70
2023-02-04T23:29:11.401Z,13.50
2023-02-04T23:32:12.823Z,10.15
2023-02-04T23:35:14.336Z,10.15
2023-02-04T23:38:16.059Z,10.75
2023-02-04T23:41:17.527Z,11.88
2023-02-04T23:44:19.034Z,9.27
2023-02-04T23:47:20.605Z,12.55
2023-02-04T23:50:22.125Z,12.00
2023-02-04T23:53:24.271Z,24.00
2023-02-04T23:56:25.790Z,25.95
2023-02-04T23:59:27.480Z,24.92
